sensor_id;sensor_type;location;lat;lon;timestamp;temperature;humidity
1506;DHT22;744;51.436;7.356;2023-04-07T00:00:52;11.60;50.70
1506;DHT22;744;51.436;7.356;2023-04-07T00:03:18;11.40;50.60
1506;DHT22;744;51.436;7.356;2023-04-07T00:05:45;11.60;50.90
1506;DHT22;744;51.436;7.356;2023-04-07T00:08:12;11.40;50.80
1506;DHT22;744;51.436;7.356;2023-04-07T00:10:39;11.80;51.20
1506;DHT22;744;51.436;7.356;2023-04-07T00:13:06;11.50;50.80
1506;DHT22;744;51.436;7.356;2023-04-07T00:15:33;11.60;50.90
1506;DHT22;744;51.436;7.356;2023-04-07T00:18:00;11.60;51.00
1506;DHT22;744;51.436;7.356;2023-04-07T00:20:27;11.40;50.70
1506;DHT22;744;51.436;7.356;2023-04-07T00:22:54;11.60;51.00
1506;DHT22;744;51.436;7.356;2023-04-07T00:25:21;11.70;51.10
1506;DHT22;744;51.436;7.356;2023-04-07T00:27:47;11.60;51.00
1506;DHT22;744;51.436;7.356;2023-04-07T00:30:14;11.70;51.10
1506;DHT22;744;51.436;7.356;2023-04-07T00:32:41;11.90;51.20
1506;DHT22;744;51.436;7.356;2023-04-07T00:35:11;11.70;51.10
1506;DHT22;744;51.436;7.356;2023-04-07T00:37:37;11.90;51.20
1506;DHT22;744;51.436;7.356;2023-04-07T00:40:05;11.70;51.10
1506;DHT22;744;51.436;7.356;2023-04-07T00:42:32;11.70;51.10
1506;DHT22;744;51.436;7.356;2023-04-07T00:45:00;11.90;51.30
1506;DHT22;744;51.436;7.356;2023-04-07T00:47:27;12.00;51.40
1506;DHT22;744;51.436;7.356;2023-04-07T00:49:54;11.70;51.20
1506;DHT22;744;51.436;7.356;2023-04-07T00:52:21;11.80;51.20
1506;DHT22;744;51.436;7.356;2023-04-07T00:54:54;11.90;51.10
1506;DHT22;744;51.436;7.356;2023-04-07T00:57:21;11.70;50.90
1506;DHT22;744;51.436;7.356;2023-04-07T00:59:49;12.10;51.20
1506;DHT22;744;51.436;7.356;2023-04-07T01:02:42;11.80;50.90
1506;DHT22;744;51.436;7.356;2023-04-07T01:05:38;11.80;50.90
1506;DHT22;744;51.436;7.356;2023-04-07T01:10:50;12.00;51.00
1506;DHT22;744;51.436;7.356;2023-04-07T01:13:22;11.80;50.80
1506;DHT22;744;51.436;7.356;2023-04-07T01:15:51;12.00;51.00
1506;DHT22;744;51.436;7.356;2023-04-07T01:18:28;12.00;51.00
1506;DHT22;744;51.436;7.356;2023-04-07T01:21:08;12.10;51.00
1506;DHT22;744;51.436;7.356;2023-04-07T01:23:51;12.00;51.00
1506;DHT22;744;51.436;7.356;2023-04-07T01:26:29;12.30;51.20
1506;DHT22;744;51.436;7.356;2023-04-07T01:31:47;12.00;50.90
1506;DHT22;744;51.436;7.356;2023-04-07T01:34:16;12.10;51.00
1506;DHT22;744;51.436;7.356;2023-04-07T01:36:44;12.00;51.00
1506;DHT22;744;51.436;7.356;2023-04-07T01:39:12;11.90;50.90
1506;DHT22;744;51.436;7.356;2023-04-07T01:41:40;12.00;51.00
1506;DHT22;744;51.436;7.356;2023-04-07T01:44:07;12.20;51.30
1506;DHT22;744;51.436;7.356;2023-04-07T01:46:35;12.00;51.20
1506;DHT22;744;51.436;7.356;2023-04-07T01:49:03;11.90;51.10
1506;DHT22;744;51.436;7.356;2023-04-07T01:51:31;12.20;51.20
1506;DHT22;744;51.436;7.356;2023-04-07T01:53:58;12.20;51.30
1506;DHT22;744;51.436;7.356;2023-04-07T01:56:25;11.90;50.90
1506;DHT22;744;51.436;7.356;2023-04-07T01:58:52;12.10;51.00
1506;DHT22;744;51.436;7.356;2023-04-07T02:01:19;12.00;51.00
1506;DHT22;744;51.436;7.356;2023-04-07T02:03:53;12.20;51.10
1506;DHT22;744;51.436;7.356;2023-04-07T02:06:26;12.30;51.30
1506;DHT22;744;51.436;7.356;2023-04-07T02:09:01;12.00;51.20
1506;DHT22;744;51.436;7.356;2023-04-07T02:11:29;12.00;51.40
1506;DHT22;744;51.436;7.356;2023-04-07T02:14:00;12.00;51.30
1506;DHT22;744;51.436;7.356;2023-04-07T02:16:29;12.20;51.50
1506;DHT22;744;51.436;7.356;2023-04-07T02:18:57;12.10;51.50
1506;DHT22;744;51.436;7.356;2023-04-07T02:21:26;12.00;51.40
1506;DHT22;744;51.436;7.356;2023-04-07T02:23:53;12.10;51.50
1506;DHT22;744;51.436;7.356;2023-04-07T02:26:21;11.90;51.30
1506;DHT22;744;51.436;7.356;2023-04-07T02:28:47;12.00;51.40
1506;DHT22;744;51.436;7.356;2023-04-07T02:31:14;12.10;51.50
1506;DHT22;744;51.436;7.356;2023-04-07T02:33:41;12.30;51.60
1506;DHT22;744;51.436;7.356;2023-04-07T02:36:08;12.10;51.50
1506;DHT22;744;51.436;7.356;2023-04-07T02:38:35;12.00;51.60
1506;DHT22;744;51.436;7.356;2023-04-07T02:41:02;11.80;51.30
1506;DHT22;744;51.436;7.356;2023-04-07T02:43:28;12.00;51.50
1506;DHT22;744;51.436;7.356;2023-04-07T02:45:55;12.10;51.50
1506;DHT22;744;51.436;7.356;2023-04-07T02:48:22;12.10;51.20
1506;DHT22;744;51.436;7.356;2023-04-07T02:50:49;12.30;51.40
1506;DHT22;744;51.436;7.356;2023-04-07T02:53:16;12.10;51.40
1506;DHT22;744;51.436;7.356;2023-04-07T02:55:42;12.20;51.40
1506;DHT22;744;51.436;7.356;2023-04-07T02:58:09;12.20;51.40
1506;DHT22;744;51.436;7.356;2023-04-07T03:00:36;12.10;51.40
1506;DHT22;744;51.436;7.356;2023-04-07T03:03:03;12.10;51.50
1506;DHT22;744;51.436;7.356;2023-04-07T03:05:30;12.10;51.60
1506;DHT22;744;51.436;7.356;2023-04-07T03:07:57;12.20;51.70
1506;DHT22;744;51.436;7.356;2023-04-07T03:10:24;12.10;51.60
1506;DHT22;744;51.436;7.356;2023-04-07T03:12:51;12.30;51.60
1506;DHT22;744;51.436;7.356;2023-04-07T03:15:17;12.00;51.40
1506;DHT22;744;51.436;7.356;2023-04-07T03:17:44;12.20;51.60
1506;DHT22;744;51.436;7.356;2023-04-07T03:20:11;12.30;51.80
1506;DHT22;744;51.436;7.356;2023-04-07T03:22:38;12.30;51.80
1506;DHT22;744;51.436;7.356;2023-04-07T03:25:05;12.20;51.70
1506;DHT22;744;51.436;7.356;2023-04-07T03:27:32;12.30;51.80
1506;DHT22;744;51.436;7.356;2023-04-07T03:29:59;12.20;51.70
1506;DHT22;744;51.436;7.356;2023-04-07T03:32:26;12.20;51.60
1506;DHT22;744;51.436;7.356;2023-04-07T03:34:52;12.20;51.60
1506;DHT22;744;51.436;7.356;2023-04-07T03:37:19;12.10;51.60
1506;DHT22;744;51.436;7.356;2023-04-07T03:39:46;12.10;51.60
1506;DHT22;744;51.436;7.356;2023-04-07T03:42:12;12.30;51.80
1506;DHT22;744;51.436;7.356;2023-04-07T03:44:39;12.40;52.00
1506;DHT22;744;51.436;7.356;2023-04-07T03:47:06;12.10;51.70
1506;DHT22;744;51.436;7.356;2023-04-07T03:49:33;12.20;51.90
1506;DHT22;744;51.436;7.356;2023-04-07T03:52:00;12.30;52.10
1506;DHT22;744;51.436;7.356;2023-04-07T03:54:27;12.00;51.70
1506;DHT22;744;51.436;7.356;2023-04-07T03:56:53;12.30;52.10
1506;DHT22;744;51.436;7.356;2023-04-07T03:59:20;12.30;52.20
1506;DHT22;744;51.436;7.356;2023-04-07T04:01:47;12.40;52.30
1506;DHT22;744;51.436;7.356;2023-04-07T04:04:14;12.30;52.10
1506;DHT22;744;51.436;7.356;2023-04-07T04:06:41;12.30;52.00
1506;DHT22;744;51.436;7.356;2023-04-07T04:09:07;12.20;51.90
1506;DHT22;744;51.436;7.356;2023-04-07T04:11:34;12.50;52.30
1506;DHT22;744;51.436;7.356;2023-04-07T04:14:01;12.40;52.30
1506;DHT22;744;51.436;7.356;2023-04-07T04:16:29;12.30;52.40
1506;DHT22;744;51.436;7.356;2023-04-07T04:18:57;12.20;52.50
1506;DHT22;744;51.436;7.356;2023-04-07T04:21:24;12.20;52.50
1506;DHT22;744;51.436;7.356;2023-04-07T04:23:52;12.10;52.40
1506;DHT22;744;51.436;7.356;2023-04-07T04:26:19;12.40;52.80
1506;DHT22;744;51.436;7.356;2023-04-07T04:28:51;12.50;52.60
1506;DHT22;744;51.436;7.356;2023-04-07T04:31:21;12.10;52.60
1506;DHT22;744;51.436;7.356;2023-04-07T04:33:47;12.00;53.30
1506;DHT22;744;51.436;7.356;2023-04-07T04:36:14;11.80;53.50
1506;DHT22;744;51.436;7.356;2023-04-07T04:38:42;11.70;53.90
1506;DHT22;744;51.436;7.356;2023-04-07T04:41:08;11.60;54.10
1506;DHT22;744;51.436;7.356;2023-04-07T04:43:35;11.40;54.30
1506;DHT22;744;51.436;7.356;2023-04-07T04:46:02;11.50;54.70
1506;DHT22;744;51.436;7.356;2023-04-07T04:48:29;11.50;55.10
1506;DHT22;744;51.436;7.356;2023-04-07T04:50:55;11.20;55.20
1506;DHT22;744;51.436;7.356;2023-04-07T04:53:22;11.30;55.80
1506;DHT22;744;51.436;7.356;2023-04-07T04:55:49;11.20;56.50
1506;DHT22;744;51.436;7.356;2023-04-07T04:58:19;11.00;56.70
1506;DHT22;744;51.436;7.356;2023-04-07T05:00:46;11.20;56.90
1506;DHT22;744;51.436;7.356;2023-04-07T05:03:13;10.90;56.60
1506;DHT22;744;51.436;7.356;2023-04-07T05:05:40;11.00;56.70
1506;DHT22;744;51.436;7.356;2023-04-07T05:08:09;10.70;56.40
1506;DHT22;744;51.436;7.356;2023-04-07T05:10:37;10.90;56.70
1506;DHT22;744;51.436;7.356;2023-04-07T05:13:05;10.90;56.60
1506;DHT22;744;51.436;7.356;2023-04-07T05:15:32;10.70;57.20
1506;DHT22;744;51.436;7.356;2023-04-07T05:17:59;10.80;57.60
1506;DHT22;744;51.436;7.356;2023-04-07T05:20:26;10.90;57.70
1506;DHT22;744;51.436;7.356;2023-04-07T05:22:52;10.90;57.80
1506;DHT22;744;51.436;7.356;2023-04-07T05:25:19;10.90;57.70
1506;DHT22;744;51.436;7.356;2023-04-07T05:27:46;11.00;57.80
1506;DHT22;744;51.436;7.356;2023-04-07T05:30:13;10.70;57.40
1506;DHT22;744;51.436;7.356;2023-04-07T05:32:40;11.00;57.70
1506;DHT22;744;51.436;7.356;2023-04-07T05:35:07;10.80;57.60
1506;DHT22;744;51.436;7.356;2023-04-07T05:37:34;10.90;57.60
1506;DHT22;744;51.436;7.356;2023-04-07T05:40:01;11.10;57.90
1506;DHT22;744;51.436;7.356;2023-04-07T05:42:28;11.10;57.80
1506;DHT22;744;51.436;7.356;2023-04-07T05:44:55;11.00;57.80
1506;DHT22;744;51.436;7.356;2023-04-07T05:47:22;10.80;57.80
1506;DHT22;744;51.436;7.356;2023-04-07T05:49:49;11.00;58.10
1506;DHT22;744;51.436;7.356;2023-04-07T05:52:16;10.70;58.70
1506;DHT22;744;51.436;7.356;2023-04-07T05:54:42;11.00;58.30
1506;DHT22;744;51.436;7.356;2023-04-07T05:57:09;11.10;58.50
1506;DHT22;744;51.436;7.356;2023-04-07T05:59:36;10.80;58.30
1506;DHT22;744;51.436;7.356;2023-04-07T06:02:04;10.70;58.60
1506;DHT22;744;51.436;7.356;2023-04-07T06:04:31;10.80;58.70
1506;DHT22;744;51.436;7.356;2023-04-07T06:07:00;10.50;58.60
1506;DHT22;744;51.436;7.356;2023-04-07T06:09:26;10.80;58.90
1506;DHT22;744;51.436;7.356;2023-04-07T06:11:53;10.70;58.70
1506;DHT22;744;51.436;7.356;2023-04-07T06:14:20;10.50;58.70
1506;DHT22;744;51.436;7.356;2023-04-07T06:16:47;10.50;58.90
1506;DHT22;744;51.436;7.356;2023-04-07T06:19:14;10.60;59.10
1506;DHT22;744;51.436;7.356;2023-04-07T06:21:40;10.70;59.10
1506;DHT22;744;51.436;7.356;2023-04-07T06:24:07;10.70;59.10
1506;DHT22;744;51.436;7.356;2023-04-07T06:26:34;10.60;59.10
1506;DHT22;744;51.436;7.356;2023-04-07T06:29:01;10.70;59.20
1506;DHT22;744;51.436;7.356;2023-04-07T06:31:27;10.60;59.90
1506;DHT22;744;51.436;7.356;2023-04-07T06:33:54;10.50;59.10
1506;DHT22;744;51.436;7.356;2023-04-07T06:36:21;10.40;58.90
1506;DHT22;744;51.436;7.356;2023-04-07T06:38:49;10.60;59.00
1506;DHT22;744;51.436;7.356;2023-04-07T06:41:16;10.70;58.90
1506;DHT22;744;51.436;7.356;2023-04-07T06:43:45;10.50;58.60
1506;DHT22;744;51.436;7.356;2023-04-07T06:46:13;10.50;58.70
1506;DHT22;744;51.436;7.356;2023-04-07T06:48:40;10.50;58.60
1506;DHT22;744;51.436;7.356;2023-04-07T06:51:07;10.90;58.90
1506;DHT22;744;51.436;7.356;2023-04-07T06:53:34;10.80;58.90
1506;DHT22;744;51.436;7.356;2023-04-07T06:56:08;10.40;58.60
1506;DHT22;744;51.436;7.356;2023-04-07T06:58:35;10.50;58.70
1506;DHT22;744;51.436;7.356;2023-04-07T07:01:03;10.60;58.90
1506;DHT22;744;51.436;7.356;2023-04-07T07:03:30;10.80;59.00
1506;DHT22;744;51.436;7.356;2023-04-07T07:05:58;10.80;58.90
1506;DHT22;744;51.436;7.356;2023-04-07T07:08:26;10.80;58.90
1506;DHT22;744;51.436;7.356;2023-04-07T07:10:54;10.70;59.00
1506;DHT22;744;51.436;7.356;2023-04-07T07:13:22;10.50;58.70
1506;DHT22;744;51.436;7.356;2023-04-07T07:15:50;10.70;58.90
1506;DHT22;744;51.436;7.356;2023-04-07T07:18:17;10.80;58.90
1506;DHT22;744;51.436;7.356;2023-04-07T07:20:45;10.70;58.90
1506;DHT22;744;51.436;7.356;2023-04-07T07:23:12;10.80;58.80
1506;DHT22;744;51.436;7.356;2023-04-07T07:25:38;10.70;58.80
1506;DHT22;744;51.436;7.356;2023-04-07T07:28:05;10.70;58.80
1506;DHT22;744;51.436;7.356;2023-04-07T07:30:32;10.70;58.90
1506;DHT22;744;51.436;7.356;2023-04-07T07:32:59;10.60;58.90
1506;DHT22;744;51.436;7.356;2023-04-07T07:35:26;10.80;59.00
1506;DHT22;744;51.436;7.356;2023-04-07T07:37:53;10.60;58.70
1506;DHT22;744;51.436;7.356;2023-04-07T07:40:20;11.00;59.00
1506;DHT22;744;51.436;7.356;2023-04-07T07:42:47;10.70;58.60
1506;DHT22;744;51.436;7.356;2023-04-07T07:45:13;10.70;58.40
1506;DHT22;744;51.436;7.356;2023-04-07T07:47:40;11.10;58.70
1506;DHT22;744;51.436;7.356;2023-04-07T07:50:07;10.80;58.30
1506;DHT22;744;51.436;7.356;2023-04-07T07:52:34;11.20;58.70
1506;DHT22;744;51.436;7.356;2023-04-07T07:55:01;10.90;58.40
1506;DHT22;744;51.436;7.356;2023-04-07T07:57:28;10.90;58.30
1506;DHT22;744;51.436;7.356;2023-04-07T07:59:56;11.00;58.30
1506;DHT22;744;51.436;7.356;2023-04-07T08:02:23;11.10;58.50
1506;DHT22;744;51.436;7.356;2023-04-07T08:04:56;11.40;58.70
1506;DHT22;744;51.436;7.356;2023-04-07T08:07:23;11.20;58.60
1506;DHT22;744;51.436;7.356;2023-04-07T08:09:51;11.10;58.50
1506;DHT22;744;51.436;7.356;2023-04-07T08:12:17;11.10;58.70
1506;DHT22;744;51.436;7.356;2023-04-07T08:14:44;10.80;58.60
1506;DHT22;744;51.436;7.356;2023-04-07T08:17:11;10.80;58.80
1506;DHT22;744;51.436;7.356;2023-04-07T08:19:38;11.10;59.10
1506;DHT22;744;51.436;7.356;2023-04-07T08:22:05;10.80;58.90
1506;DHT22;744;51.436;7.356;2023-04-07T08:24:32;11.00;59.10
1506;DHT22;744;51.436;7.356;2023-04-07T08:26:59;11.10;59.20
1506;DHT22;744;51.436;7.356;2023-04-07T08:29:26;11.00;59.20
1506;DHT22;744;51.436;7.356;2023-04-07T08:31:55;10.90;59.20
1506;DHT22;744;51.436;7.356;2023-04-07T08:34:21;11.00;59.20
1506;DHT22;744;51.436;7.356;2023-04-07T08:36:48;10.90;58.90
1506;DHT22;744;51.436;7.356;2023-04-07T08:39:15;11.00;58.80
1506;DHT22;744;51.436;7.356;2023-04-07T08:41:43;11.30;58.90
1506;DHT22;744;51.436;7.356;2023-04-07T08:44:12;11.30;58.80
1506;DHT22;744;51.436;7.356;2023-04-07T08:46:41;11.20;59.20
1506;DHT22;744;51.436;7.356;2023-04-07T08:49:10;11.10;58.50
1506;DHT22;744;51.436;7.356;2023-04-07T08:51:49;11.40;58.80
1506;DHT22;744;51.436;7.356;2023-04-07T08:54:17;11.10;58.70
1506;DHT22;744;51.436;7.356;2023-04-07T08:56:44;11.20;59.00
1506;DHT22;744;51.436;7.356;2023-04-07T08:59:13;11.30;59.00
1506;DHT22;744;51.436;7.356;2023-04-07T09:01:41;11.40;59.00
1506;DHT22;744;51.436;7.356;2023-04-07T09:04:09;11.50;59.00
1506;DHT22;744;51.436;7.356;2023-04-07T09:06:37;11.50;59.00
1506;DHT22;744;51.436;7.356;2023-04-07T09:09:04;11.50;58.70
1506;DHT22;744;51.436;7.356;2023-04-07T09:11:38;11.50;58.50
1506;DHT22;744;51.436;7.356;2023-04-07T09:14:05;11.50;58.40
1506;DHT22;744;51.436;7.356;2023-04-07T09:16:33;11.60;58.30
1506;DHT22;744;51.436;7.356;2023-04-07T09:19:00;11.70;58.30
1506;DHT22;744;51.436;7.356;2023-04-07T09:21:49;11.70;58.40
1506;DHT22;744;51.436;7.356;2023-04-07T09:24:24;11.50;58.20
1506;DHT22;744;51.436;7.356;2023-04-07T09:27:17;11.60;59.00
1506;DHT22;744;51.436;7.356;2023-04-07T09:29:46;11.60;58.30
1506;DHT22;744;51.436;7.356;2023-04-07T09:32:36;11.60;58.60
1506;DHT22;744;51.436;7.356;2023-04-07T09:35:07;11.60;58.80
1506;DHT22;744;51.436;7.356;2023-04-07T09:37:34;11.60;58.50
1506;DHT22;744;51.436;7.356;2023-04-07T09:40:01;11.60;58.60
1506;DHT22;744;51.436;7.356;2023-04-07T09:42:28;11.40;58.40
1506;DHT22;744;51.436;7.356;2023-04-07T09:45:00;11.50;58.40
1506;DHT22;744;51.436;7.356;2023-04-07T09:47:28;11.60;58.50
1506;DHT22;744;51.436;7.356;2023-04-07T09:49:56;11.50;58.40
1506;DHT22;744;51.436;7.356;2023-04-07T09:52:51;11.70;58.30
1506;DHT22;744;51.436;7.356;2023-04-07T09:55:22;11.50;58.00
1506;DHT22;744;51.436;7.356;2023-04-07T09:57:49;11.60;58.10
1506;DHT22;744;51.436;7.356;2023-04-07T10:00:17;11.70;58.10
1506;DHT22;744;51.436;7.356;2023-04-07T10:02:44;11.60;57.90
1506;DHT22;744;51.436;7.356;2023-04-07T10:05:12;11.60;57.60
1506;DHT22;744;51.436;7.356;2023-04-07T10:07:39;11.70;57.60
1506;DHT22;744;51.436;7.356;2023-04-07T10:10:08;11.70;57.30
1506;DHT22;744;51.436;7.356;2023-04-07T10:12:39;11.80;57.40
1506;DHT22;744;51.436;7.356;2023-04-07T10:15:07;11.80;57.40
1506;DHT22;744;51.436;7.356;2023-04-07T10:17:35;11.90;57.50
1506;DHT22;744;51.436;7.356;2023-04-07T10:20:04;11.90;57.50
1506;DHT22;744;51.436;7.356;2023-04-07T10:22:33;11.90;57.50
1506;DHT22;744;51.436;7.356;2023-04-07T10:25:07;11.80;57.40
1506;DHT22;744;51.436;7.356;2023-04-07T10:27:41;12.00;57.50
1506;DHT22;744;51.436;7.356;2023-04-07T10:30:24;12.00;57.50
1506;DHT22;744;51.436;7.356;2023-04-07T10:32:53;12.30;57.30
1506;DHT22;744;51.436;7.356;2023-04-07T10:35:20;12.40;57.10
1506;DHT22;744;51.436;7.356;2023-04-07T10:40:34;12.30;56.90
1506;DHT22;744;51.436;7.356;2023-04-07T10:43:02;12.50;57.20
1506;DHT22;744;51.436;7.356;2023-04-07T10:45:51;12.20;56.90
1506;DHT22;744;51.436;7.356;2023-04-07T10:48:19;12.40;56.60
1506;DHT22;744;51.436;7.356;2023-04-07T10:53:33;12.50;55.90
1506;DHT22;744;51.436;7.356;2023-04-07T10:56:01;12.80;56.20
1506;DHT22;744;51.436;7.356;2023-04-07T10:58:28;12.60;55.90
1506;DHT22;744;51.436;7.356;2023-04-07T11:03:31;12.90;55.90
1506;DHT22;744;51.436;7.356;2023-04-07T11:06:10;12.60;55.70
1506;DHT22;744;51.436;7.356;2023-04-07T11:08:41;12.50;55.60
1506;DHT22;744;51.436;7.356;2023-04-07T11:11:10;12.50;55.60
1506;DHT22;744;51.436;7.356;2023-04-07T11:16:07;12.70;55.40
1506;DHT22;744;51.436;7.356;2023-04-07T11:18:36;12.50;55.30
1506;DHT22;744;51.436;7.356;2023-04-07T11:21:04;12.70;55.40
1506;DHT22;744;51.436;7.356;2023-04-07T11:23:38;12.70;55.50
1506;DHT22;744;51.436;7.356;2023-04-07T11:26:06;12.50;55.20
1506;DHT22;744;51.436;7.356;2023-04-07T11:28:33;12.40;55.00
1506;DHT22;744;51.436;7.356;2023-04-07T11:31:03;12.70;55.30
1506;DHT22;744;51.436;7.356;2023-04-07T11:33:30;12.60;55.30
1506;DHT22;744;51.436;7.356;2023-04-07T11:35:59;12.90;55.30
1506;DHT22;744;51.436;7.356;2023-04-07T11:38:35;12.70;55.10
1506;DHT22;744;51.436;7.356;2023-04-07T11:41:13;13.00;55.30
1506;DHT22;744;51.436;7.356;2023-04-07T11:43:40;12.90;55.00
1506;DHT22;744;51.436;7.356;2023-04-07T11:48:38;13.00;55.10
1506;DHT22;744;51.436;7.356;2023-04-07T11:51:06;13.00;54.90
1506;DHT22;744;51.436;7.356;2023-04-07T11:53:40;13.00;54.50
1506;DHT22;744;51.436;7.356;2023-04-07T11:56:09;13.10;54.40
1506;DHT22;744;51.436;7.356;2023-04-07T11:58:38;13.20;54.40
1506;DHT22;744;51.436;7.356;2023-04-07T12:01:11;13.20;54.40
1506;DHT22;744;51.436;7.356;2023-04-07T12:03:57;13.00;54.20
1506;DHT22;744;51.436;7.356;2023-04-07T12:06:33;13.40;54.30
1506;DHT22;744;51.436;7.356;2023-04-07T12:09:01;13.40;54.10
1506;DHT22;744;51.436;7.356;2023-04-07T12:11:28;13.40;53.90
1506;DHT22;744;51.436;7.356;2023-04-07T12:13:55;13.50;53.90
1506;DHT22;744;51.436;7.356;2023-04-07T12:16:23;13.20;53.70
1506;DHT22;744;51.436;7.356;2023-04-07T12:18:50;13.20;53.70
1506;DHT22;744;51.436;7.356;2023-04-07T12:21:18;13.50;54.40
1506;DHT22;744;51.436;7.356;2023-04-07T12:23:45;13.30;53.60
1506;DHT22;744;51.436;7.356;2023-04-07T12:26:13;13.60;53.80
1506;DHT22;744;51.436;7.356;2023-04-07T12:28:40;13.50;53.80
1506;DHT22;744;51.436;7.356;2023-04-07T12:31:06;13.20;53.60
1506;DHT22;744;51.436;7.356;2023-04-07T12:33:33;13.50;53.60
1506;DHT22;744;51.436;7.356;2023-04-07T12:36:00;13.50;53.70
1506;DHT22;744;51.436;7.356;2023-04-07T12:38:27;13.40;53.60
1506;DHT22;744;51.436;7.356;2023-04-07T12:40:54;13.30;53.50
1506;DHT22;744;51.436;7.356;2023-04-07T12:43:21;13.30;53.50
1506;DHT22;744;51.436;7.356;2023-04-07T12:45:47;13.20;53.50
1506;DHT22;744;51.436;7.356;2023-04-07T12:48:14;13.20;53.50
1506;DHT22;744;51.436;7.356;2023-04-07T12:50:42;13.30;54.30
1506;DHT22;744;51.436;7.356;2023-04-07T12:53:09;12.90;53.30
1506;DHT22;744;51.436;7.356;2023-04-07T12:55:35;13.00;54.20
1506;DHT22;744;51.436;7.356;2023-04-07T12:58:03;13.20;53.80
1506;DHT22;744;51.436;7.356;2023-04-07T13:00:30;13.20;53.80
1506;DHT22;744;51.436;7.356;2023-04-07T13:02:57;13.20;53.70
1506;DHT22;744;51.436;7.356;2023-04-07T13:05:24;13.30;53.80
1506;DHT22;744;51.436;7.356;2023-04-07T13:07:51;13.20;53.70
1506;DHT22;744;51.436;7.356;2023-04-07T13:10:17;13.40;53.70
1506;DHT22;744;51.436;7.356;2023-04-07T13:12:44;13.20;53.40
1506;DHT22;744;51.436;7.356;2023-04-07T13:15:11;13.30;54.20
1506;DHT22;744;51.436;7.356;2023-04-07T13:17:38;13.10;53.50
1506;DHT22;744;51.436;7.356;2023-04-07T13:20:05;13.20;53.60
1506;DHT22;744;51.436;7.356;2023-04-07T13:22:33;13.20;53.80
1506;DHT22;744;51.436;7.356;2023-04-07T13:25:01;12.80;53.50
1506;DHT22;744;51.436;7.356;2023-04-07T13:27:28;13.00;53.80
1506;DHT22;744;51.436;7.356;2023-04-07T13:29:55;13.20;53.90
1506;DHT22;744;51.436;7.356;2023-04-07T13:32:22;13.00;53.70
1506;DHT22;744;51.436;7.356;2023-04-07T13:34:49;13.00;53.80
1506;DHT22;744;51.436;7.356;2023-04-07T13:37:16;13.00;53.80
1506;DHT22;744;51.436;7.356;2023-04-07T13:39:45;13.10;54.00
1506;DHT22;744;51.436;7.356;2023-04-07T13:42:13;13.10;54.00
1506;DHT22;744;51.436;7.356;2023-04-07T13:44:42;13.20;53.90
1506;DHT22;744;51.436;7.356;2023-04-07T13:47:11;13.30;53.80
1506;DHT22;744;51.436;7.356;2023-04-07T13:49:40;13.40;53.80
1506;DHT22;744;51.436;7.356;2023-04-07T13:52:07;13.20;53.50
1506;DHT22;744;51.436;7.356;2023-04-07T13:54:34;13.40;53.70
1506;DHT22;744;51.436;7.356;2023-04-07T13:57:00;13.10;53.50
1506;DHT22;744;51.436;7.356;2023-04-07T13:59:27;13.30;53.80
1506;DHT22;744;51.436;7.356;2023-04-07T14:01:54;13.20;54.60
1506;DHT22;744;51.436;7.356;2023-04-07T14:04:21;13.30;54.10
1506;DHT22;744;51.436;7.356;2023-04-07T14:06:48;13.50;54.00
1506;DHT22;744;51.436;7.356;2023-04-07T14:09:15;13.50;53.50
1506;DHT22;744;51.436;7.356;2023-04-07T14:11:41;13.80;53.70
1506;DHT22;744;51.436;7.356;2023-04-07T14:14:08;13.60;53.20
1506;DHT22;744;51.436;7.356;2023-04-07T14:16:35;13.70;53.20
1506;DHT22;744;51.436;7.356;2023-04-07T14:19:03;13.60;53.10
1506;DHT22;744;51.436;7.356;2023-04-07T14:21:30;13.70;53.20
1506;DHT22;744;51.436;7.356;2023-04-07T14:23:57;13.70;53.30
1506;DHT22;744;51.436;7.356;2023-04-07T14:26:24;13.50;53.80
1506;DHT22;744;51.436;7.356;2023-04-07T14:28:52;13.60;53.30
1506;DHT22;744;51.436;7.356;2023-04-07T14:31:19;13.40;53.00
1506;DHT22;744;51.436;7.356;2023-04-07T14:33:48;13.50;53.10
1506;DHT22;744;51.436;7.356;2023-04-07T14:36:16;13.50;53.20
1506;DHT22;744;51.436;7.356;2023-04-07T14:38:43;13.50;53.20
1506;DHT22;744;51.436;7.356;2023-04-07T14:41:09;13.40;53.30
1506;DHT22;744;51.436;7.356;2023-04-07T14:43:36;13.30;53.40
1506;DHT22;744;51.436;7.356;2023-04-07T14:46:04;13.30;53.60
1506;DHT22;744;51.436;7.356;2023-04-07T14:48:31;13.30;53.70
1506;DHT22;744;51.436;7.356;2023-04-07T14:50:58;13.60;53.70
1506;DHT22;744;51.436;7.356;2023-04-07T14:53:35;13.50;53.60
1506;DHT22;744;51.436;7.356;2023-04-07T14:56:05;13.70;53.70
1506;DHT22;744;51.436;7.356;2023-04-07T14:58:32;13.80;53.60
1506;DHT22;744;51.436;7.356;2023-04-07T15:00:59;13.90;53.40
1506;DHT22;744;51.436;7.356;2023-04-07T15:03:26;13.80;53.00
1506;DHT22;744;51.436;7.356;2023-04-07T15:05:53;13.50;52.90
1506;DHT22;744;51.436;7.356;2023-04-07T15:08:20;13.60;53.10
1506;DHT22;744;51.436;7.356;2023-04-07T15:10:46;13.40;52.90
1506;DHT22;744;51.436;7.356;2023-04-07T15:13:13;13.70;53.20
1506;DHT22;744;51.436;7.356;2023-04-07T15:15:40;13.80;53.00
1506;DHT22;744;51.436;7.356;2023-04-07T15:18:07;13.80;52.80
1506;DHT22;744;51.436;7.356;2023-04-07T15:20:33;13.80;52.70
1506;DHT22;744;51.436;7.356;2023-04-07T15:23:00;14.00;52.70
1506;DHT22;744;51.436;7.356;2023-04-07T15:25:27;14.00;52.50
1506;DHT22;744;51.436;7.356;2023-04-07T15:27:54;14.00;52.20
1506;DHT22;744;51.436;7.356;2023-04-07T15:30:21;14.10;52.30
1506;DHT22;744;51.436;7.356;2023-04-07T15:33:02;14.10;52.20
1506;DHT22;744;51.436;7.356;2023-04-07T15:35:30;14.40;52.20
1506;DHT22;744;51.436;7.356;2023-04-07T15:37:57;14.20;51.80
1506;DHT22;744;51.436;7.356;2023-04-07T15:40:23;14.10;51.30
1506;DHT22;744;51.436;7.356;2023-04-07T15:42:50;14.20;51.50
1506;DHT22;744;51.436;7.356;2023-04-07T15:45:17;14.10;51.50
1506;DHT22;744;51.436;7.356;2023-04-07T15:47:44;14.10;51.40
1506;DHT22;744;51.436;7.356;2023-04-07T15:50:11;14.20;51.30
1506;DHT22;744;51.436;7.356;2023-04-07T15:52:38;14.20;51.10
1506;DHT22;744;51.436;7.356;2023-04-07T15:55:05;14.30;51.20
1506;DHT22;744;51.436;7.356;2023-04-07T15:57:31;13.90;51.20
1506;DHT22;744;51.436;7.356;2023-04-07T15:59:58;14.20;51.60
1506;DHT22;744;51.436;7.356;2023-04-07T16:02:25;14.10;51.50
1506;DHT22;744;51.436;7.356;2023-04-07T16:04:52;14.00;51.60
1506;DHT22;744;51.436;7.356;2023-04-07T16:07:19;13.90;51.60
1506;DHT22;744;51.436;7.356;2023-04-07T16:09:46;13.80;51.50
1506;DHT22;744;51.436;7.356;2023-04-07T16:12:13;14.20;52.00
1506;DHT22;744;51.436;7.356;2023-04-07T16:14:40;14.20;51.80
1506;DHT22;744;51.436;7.356;2023-04-07T16:17:07;14.10;51.50
1506;DHT22;744;51.436;7.356;2023-04-07T16:19:33;14.10;51.50
1506;DHT22;744;51.436;7.356;2023-04-07T16:22:00;14.10;51.30
1506;DHT22;744;51.436;7.356;2023-04-07T16:24:27;14.10;51.30
1506;DHT22;744;51.436;7.356;2023-04-07T16:26:54;14.20;51.40
1506;DHT22;744;51.436;7.356;2023-04-07T16:29:21;14.30;51.40
1506;DHT22;744;51.436;7.356;2023-04-07T16:31:48;14.10;51.30
1506;DHT22;744;51.436;7.356;2023-04-07T16:34:15;14.00;51.70
1506;DHT22;744;51.436;7.356;2023-04-07T16:36:42;14.20;52.50
1506;DHT22;744;51.436;7.356;2023-04-07T16:39:09;13.70;51.60
1506;DHT22;744;51.436;7.356;2023-04-07T16:41:36;13.70;51.70